createdAt,value
2022-12-31T00:01:43.526Z,11.39
2022-12-31T00:04:09.998Z,11.43
2022-12-31T00:06:36.787Z,11.43
2022-12-31T00:09:05.949Z,11.46
2022-12-31T00:11:34.853Z,11.43
2022-12-31T00:14:01.540Z,11.42
2022-12-31T00:16:31.525Z,11.37
2022-12-31T00:18:59.770Z,11.40
2022-12-31T00:21:28.147Z,11.43
2022-12-31T00:23:54.654Z,11.45
2022-12-31T00:26:24.830Z,11.47
2022-12-31T00:28:52.880Z,11.47
2022-12-31T00:31:25.651Z,11.45
2022-12-31T00:33:52.617Z,11.43
2022-12-31T00:36:22.546Z,11.46
2022-12-31T00:38:51.019Z,11.46
2022-12-31T00:41:19.092Z,11.46
2022-12-31T00:43:45.909Z,11.47
2022-12-31T00:46:13.329Z,11.45
2022-12-31T00:48:40.096Z,11.46
2022-12-31T00:51:09.043Z,11.42
2022-12-31T00:53:35.550Z,11.41
2022-12-31T00:56:02.903Z,11.42
2022-12-31T00:58:29.273Z,11.37
2022-12-31T01:00:55.870Z,11.37
2022-12-31T01:03:22.533Z,11.38
2022-12-31T01:05:50.298Z,11.35
2022-12-31T01:08:17.937Z,11.32
2022-12-31T01:11:07.744Z,11.30
2022-12-31T01:13:34.487Z,11.26
2022-12-31T01:16:10.799Z,11.24
2022-12-31T01:18:38.067Z,11.23
2022-12-31T01:21:07.506Z,11.21
2022-12-31T01:23:34.475Z,11.22
2022-12-31T01:26:02.437Z,11.19
2022-12-31T01:28:28.869Z,11.20
2022-12-31T01:30:55.480Z,11.16
2022-12-31T01:33:22.429Z,11.14
2022-12-31T01:35:49.232Z,11.11
2022-12-31T01:38:15.787Z,11.07
2022-12-31T01:40:42.607Z,11.05
2022-12-31T01:43:18.357Z,11.03
2022-12-31T01:45:48.201Z,11.03
2022-12-31T01:48:19.707Z,11.02
2022-12-31T01:50:47.310Z,11.02
2022-12-31T01:53:15.021Z,11.00
2022-12-31T01:55:52.545Z,10.99
2022-12-31T01:58:25.500Z,11.00
2022-12-31T02:00:53.164Z,10.99
2022-12-31T02:03:23.014Z,10.96
2022-12-31T02:06:05.201Z,10.96
2022-12-31T02:08:35.735Z,10.98
2022-12-31T02:11:34.361Z,10.94
2022-12-31T02:14:06.859Z,10.95
2022-12-31T02:17:04.055Z,10.93
2022-12-31T02:19:50.656Z,10.92
2022-12-31T02:22:29.205Z,10.92
2022-12-31T02:25:23.489Z,10.87
2022-12-31T02:28:09.813Z,10.85
2022-12-31T02:30:37.424Z,10.87
2022-12-31T02:33:11.529Z,10.84
2022-12-31T02:35:53.883Z,10.84
2022-12-31T02:38:32.186Z,10.84
2022-12-31T02:40:59.262Z,10.83
2022-12-31T02:43:26.250Z,10.81
2022-12-31T02:46:18.364Z,10.78
2022-12-31T02:48:56.044Z,10.78
2022-12-31T02:51:43.089Z,10.73
2022-12-31T02:54:12.468Z,10.69
2022-12-31T02:56:41.874Z,10.68
2022-12-31T02:59:42.209Z,10.65
2022-12-31T03:02:15.869Z,10.64
2022-12-31T03:04:47.481Z,10.62
2022-12-31T03:07:18.527Z,10.61
2022-12-31T03:09:44.860Z,10.60
2022-12-31T03:12:31.252Z,10.62
2022-12-31T03:14:58.140Z,10.57
2022-12-31T03:17:24.940Z,10.58
2022-12-31T03:20:10.264Z,10.57
2022-12-31T03:22:40.686Z,10.56
2022-12-31T03:25:32.036Z,10.54
2022-12-31T03:27:59.532Z,10.53
2022-12-31T03:30:26.857Z,10.52
2022-12-31T03:32:54.057Z,10.49
2022-12-31T03:35:21.213Z,10.46
2022-12-31T03:37:48.957Z,10.46
2022-12-31T03:40:16.766Z,10.43
2022-12-31T03:42:43.274Z,10.42
2022-12-31T03:45:11.981Z,10.40
2022-12-31T03:47:38.850Z,10.38
2022-12-31T03:50:07.827Z,10.38
2022-12-31T03:52:34.663Z,10.36
2022-12-31T03:55:02.215Z,10.34
2022-12-31T03:57:29.076Z,10.30
2022-12-31T03:59:55.453Z,10.27
2022-12-31T04:02:28.077Z,10.26
2022-12-31T04:04:55.158Z,10.25
2022-12-31T04:07:21.597Z,10.23
2022-12-31T04:09:48.128Z,10.24
2022-12-31T04:12:14.571Z,10.24
2022-12-31T04:14:41.102Z,10.21
2022-12-31T04:17:07.679Z,10.20
2022-12-31T04:19:34.080Z,10.19
2022-12-31T04:22:00.584Z,10.18
2022-12-31T04:24:27.221Z,10.17
2022-12-31T04:26:53.595Z,10.15
2022-12-31T04:29:19.987Z,10.13
2022-12-31T04:31:46.367Z,10.09
2022-12-31T04:34:12.872Z,10.07
2022-12-31T04:36:39.575Z,10.06
2022-12-31T04:39:06.056Z,10.05
2022-12-31T04:41:32.504Z,10.04
2022-12-31T04:43:59.412Z,10.03
2022-12-31T04:46:29.471Z,10.03
2022-12-31T04:48:56.544Z,10.04
2022-12-31T04:51:23.473Z,10.01
2022-12-31T04:53:50.283Z,10.02
2022-12-31T04:56:17.300Z,10.05
2022-12-31T04:58:43.708Z,10.06
2022-12-31T05:01:10.841Z,10.07
2022-12-31T05:03:37.696Z,10.08
2022-12-31T05:06:15.988Z,10.11
2022-12-31T05:08:42.883Z,10.13
2022-12-31T05:11:09.967Z,10.14
2022-12-31T05:13:36.670Z,10.11
2022-12-31T05:16:03.751Z,10.16
2022-12-31T05:18:32.583Z,10.17
2022-12-31T05:20:59.018Z,10.19
2022-12-31T05:23:25.925Z,10.21
2022-12-31T05:25:52.763Z,10.24
2022-12-31T05:28:19.755Z,10.26
2022-12-31T05:30:49.907Z,10.32
2022-12-31T05:33:17.032Z,10.38
2022-12-31T05:35:44.329Z,10.43
2022-12-31T05:38:10.926Z,10.44
2022-12-31T05:40:37.372Z,10.50
2022-12-31T05:43:03.809Z,10.56
2022-12-31T05:45:31.237Z,10.62
2022-12-31T05:47:58.423Z,10.64
2022-12-31T05:50:25.020Z,10.66
2022-12-31T05:52:51.389Z,10.69
2022-12-31T05:55:17.770Z,10.72
2022-12-31T05:57:44.091Z,10.78
2022-12-31T06:00:11.048Z,10.82
2022-12-31T06:02:37.636Z,10.85
2022-12-31T06:05:04.890Z,10.86
2022-12-31T06:07:31.291Z,10.91
2022-12-31T06:09:57.666Z,10.95
2022-12-31T06:12:24.034Z,11.00
2022-12-31T06:14:50.437Z,11.02
2022-12-31T06:17:16.834Z,11.03
2022-12-31T06:19:43.165Z,11.03
2022-12-31T06:22:09.641Z,11.04
2022-12-31T06:24:36.013Z,11.08
2022-12-31T06:27:02.386Z,11.08
2022-12-31T06:29:28.702Z,11.08
2022-12-31T06:31:55.113Z,11.05
2022-12-31T06:34:21.505Z,11.07
2022-12-31T06:36:47.913Z,11.10
2022-12-31T06:39:14.327Z,11.13
2022-12-31T06:41:40.687Z,11.19
2022-12-31T06:44:07.104Z,11.22
2022-12-31T06:46:33.518Z,11.27
2022-12-31T06:48:59.840Z,11.34
2022-12-31T06:51:26.252Z,11.36
2022-12-31T06:53:52.746Z,11.42
2022-12-31T06:56:31.203Z,11.51
2022-12-31T06:59:00.061Z,11.50
2022-12-31T07:01:45.237Z,11.57
2022-12-31T07:04:26.768Z,11.66
2022-12-31T07:07:22.763Z,11.69
2022-12-31T07:10:13.515Z,11.73
2022-12-31T07:12:48.269Z,11.86
2022-12-31T07:15:19.271Z,11.91
2022-12-31T07:18:04.867Z,11.99
2022-12-31T07:20:31.551Z,12.08
2022-12-31T07:22:58.287Z,12.09
2022-12-31T07:25:25.012Z,12.15
2022-12-31T07:27:51.360Z,12.18
2022-12-31T07:30:25.063Z,12.28
2022-12-31T07:33:08.954Z,12.37
2022-12-31T07:35:53.800Z,12.36
2022-12-31T07:38:35.380Z,12.40
2022-12-31T07:41:10.284Z,12.48
2022-12-31T07:43:56.265Z,12.49
2022-12-31T07:46:48.659Z,12.52
2022-12-31T07:49:15.321Z,12.52
2022-12-31T07:51:42.810Z,12.54
2022-12-31T07:54:13.937Z,12.51
2022-12-31T07:56:41.801Z,12.59
2022-12-31T07:59:20.991Z,12.66
2022-12-31T08:02:00.614Z,12.66
2022-12-31T08:04:43.041Z,12.66
2022-12-31T08:07:31.787Z,12.66
2022-12-31T08:10:18.544Z,12.67
2022-12-31T08:12:49.471Z,12.70
2022-12-31T08:15:20.060Z,12.67
2022-12-31T08:17:48.592Z,12.70
2022-12-31T08:20:16.805Z,12.70
2022-12-31T08:23:02.021Z,12.65
2022-12-31T08:25:31.392Z,12.65
2022-12-31T08:28:23.964Z,12.62
2022-12-31T08:31:10.542Z,12.62
2022-12-31T08:34:00.708Z,12.59
2022-12-31T08:36:42.155Z,12.59
2022-12-31T08:39:08.477Z,12.56
2022-12-31T08:41:43.437Z,12.54
2022-12-31T08:44:30.469Z,12.52
2022-12-31T08:47:02.695Z,12.53
2022-12-31T08:49:32.293Z,12.48
2022-12-31T08:52:00.763Z,12.45
2022-12-31T08:54:28.466Z,12.44
2022-12-31T08:57:14.958Z,12.40
2022-12-31T09:00:02.716Z,12.39
2022-12-31T09:02:55.332Z,12.35
2022-12-31T09:05:25.946Z,12.35
2022-12-31T09:08:08.418Z,12.35
2022-12-31T09:11:04.173Z,12.38
2022-12-31T09:13:33.458Z,12.38
2022-12-31T09:16:18.175Z,12.39
2022-12-31T09:18:44.716Z,12.45
2022-12-31T09:21:13.960Z,12.48
2022-12-31T09:23:40.656Z,12.56
2022-12-31T09:26:15.103Z,12.60
2022-12-31T09:28:53.923Z,12.65
2022-12-31T09:31:36.524Z,12.68
2022-12-31T09:34:22.772Z,12.78
2022-12-31T09:36:54.593Z,12.85
2022-12-31T09:39:42.028Z,12.84
2022-12-31T09:42:29.529Z,12.84
2022-12-31T09:45:40.464Z,12.87
2022-12-31T09:48:31.179Z,12.90
2022-12-31T09:51:12.836Z,12.93
2022-12-31T09:53:47.385Z,12.96
2022-12-31T09:56:29.050Z,12.97
2022-12-31T09:59:02.899Z,13.05
2022-12-31T10:02:02.864Z,13.05
2022-12-31T10:05:07.445Z,13.09
2022-12-31T10:07:43.140Z,13.14
2022-12-31T10:10:18.044Z,13.19
2022-12-31T10:13:10.570Z,13.29
2022-12-31T10:16:14.405Z,13.39
2022-12-31T10:19:14.950Z,13.47
2022-12-31T10:22:15.630Z,13.58
2022-12-31T10:25:16.128Z,13.64
2022-12-31T10:27:51.656Z,13.68
2022-12-31T10:30:23.419Z,13.72
2022-12-31T10:33:08.521Z,13.72
2022-12-31T10:35:56.140Z,13.81
2022-12-31T10:38:34.175Z,13.75
2022-12-31T10:41:23.534Z,13.78
2022-12-31T10:44:21.435Z,13.79
2022-12-31T10:47:25.482Z,13.87
2022-12-31T10:50:33.550Z,13.87
2022-12-31T10:53:41.108Z,13.83
2022-12-31T10:56:45.185Z,13.83
2022-12-31T10:59:51.013Z,13.79
2022-12-31T11:02:29.540Z,13.77
2022-12-31T11:05:34.795Z,13.75
2022-12-31T11:08:22.356Z,13.78
2022-12-31T11:11:03.756Z,13.79
2022-12-31T11:14:09.827Z,13.74
2022-12-31T11:16:50.038Z,13.78
2022-12-31T11:19:43.978Z,13.77
2022-12-31T11:22:36.071Z,13.77
2022-12-31T11:25:27.891Z,13.72
2022-12-31T11:28:17.431Z,13.66
2022-12-31T11:31:13.164Z,13.64
2022-12-31T11:33:58.061Z,13.64
2022-12-31T11:36:41.738Z,13.63
2022-12-31T11:39:33.139Z,13.68
2022-12-31T11:42:22.563Z,13.69
2022-12-31T11:45:33.507Z,13.70
2022-12-31T11:48:31.589Z,13.79
2022-12-31T11:51:32.610Z,13.87
2022-12-31T11:54:38.681Z,13.86
2022-12-31T11:57:35.889Z,14.01
2022-12-31T12:00:13.620Z,14.10
2022-12-31T12:03:07.048Z,14.15
2022-12-31T12:05:35.180Z,14.14
2022-12-31T12:08:02.162Z,14.14
2022-12-31T12:10:50.901Z,14.15
2022-12-31T12:13:17.371Z,14.16
2022-12-31T12:15:50.865Z,14.15
2022-12-31T12:18:45.174Z,14.12
2022-12-31T12:21:21.453Z,14.07
2022-12-31T12:23:58.598Z,14.08
2022-12-31T12:26:37.925Z,14.05
2022-12-31T12:29:12.847Z,14.05
2022-12-31T12:31:39.554Z,14.09
2022-12-31T12:34:19.212Z,14.03
2022-12-31T12:36:47.409Z,13.97
2022-12-31T12:39:32.748Z,14.05
2022-12-31T12:42:13.930Z,14.11
2022-12-31T12:44:41.907Z,13.99
2022-12-31T12:47:15.687Z,14.05
2022-12-31T12:49:45.911Z,14.04
2022-12-31T12:52:24.422Z,14.03
2022-12-31T12:55:19.564Z,14.00
2022-12-31T12:57:52.095Z,14.08
2022-12-31T13:00:21.504Z,14.03
2022-12-31T13:03:12.783Z,14.10
2022-12-31T13:05:47.942Z,14.10
2022-12-31T13:08:20.224Z,14.11
2022-12-31T13:11:03.648Z,14.09
2022-12-31T13:14:14.481Z,14.07
2022-12-31T13:17:18.465Z,14.10
2022-12-31T13:20:08.856Z,14.12
2022-12-31T13:22:45.215Z,14.13
2022-12-31T13:25:38.449Z,14.08
2022-12-31T13:28:10.001Z,14.02
2022-12-31T13:30:41.260Z,13.98
2022-12-31T13:33:15.763Z,13.87
2022-12-31T13:35:48.161Z,13.88
2022-12-31T13:38:21.382Z,13.82
2022-12-31T13:41:03.566Z,13.76
2022-12-31T13:43:48.948Z,13.73
2022-12-31T13:46:34.054Z,13.68
2022-12-31T13:49:05.008Z,13.72
2022-12-31T13:51:40.763Z,13.72
2022-12-31T13:54:22.325Z,13.72
2022-12-31T13:56:51.015Z,13.77
2022-12-31T13:59:22.329Z,13.79
2022-12-31T14:02:01.709Z,13.79
2022-12-31T14:04:37.049Z,13.80
2022-12-31T14:07:21.581Z,13.79
2022-12-31T14:09:48.264Z,13.80
2022-12-31T14:12:29.826Z,13.84
2022-12-31T14:14:56.123Z,13.81
2022-12-31T14:17:48.353Z,13.86
2022-12-31T14:20:34.885Z,13.84
2022-12-31T14:23:16.427Z,13.85
2022-12-31T14:25:49.238Z,13.94
2022-12-31T14:28:19.928Z,13.91
2022-12-31T14:30:51.569Z,13.93
2022-12-31T14:33:42.280Z,13.85
2022-12-31T14:36:20.979Z,13.72
2022-12-31T14:38:56.820Z,13.59
2022-12-31T14:41:38.403Z,13.58
2022-12-31T14:44:33.939Z,13.58
2022-12-31T14:47:36.927Z,13.58
2022-12-31T14:50:12.741Z,13.53
2022-12-31T14:52:55.584Z,13.63
2022-12-31T14:55:28.194Z,13.60
2022-12-31T15:00:57.939Z,13.60
2022-12-31T15:03:44.991Z,13.67
2022-12-31T15:06:40.739Z,13.62
2022-12-31T15:10:04.441Z,13.61
2022-12-31T15:13:02.171Z,13.56
2022-12-31T15:15:49.781Z,13.54
2022-12-31T15:18:54.911Z,13.51
2022-12-31T15:21:36.572Z,13.55
2022-12-31T15:24:22.661Z,13.58
2022-12-31T15:26:52.761Z,13.66
2022-12-31T15:29:26.287Z,13.70
2022-12-31T15:31:53.883Z,13.85
2022-12-31T15:34:29.479Z,13.93
2022-12-31T15:36:59.057Z,14.08
2022-12-31T15:39:31.364Z,14.15
2022-12-31T15:44:56.474Z,14.29
2022-12-31T15:47:39.611Z,14.30
2022-12-31T15:50:13.433Z,14.29
2022-12-31T15:52:43.645Z,14.32
2022-12-31T15:55:22.768Z,14.38
2022-12-31T15:57:50.379Z,14.41
2022-12-31T16:00:20.473Z,14.57
2022-12-31T16:02:48.860Z,14.61
2022-12-31T16:05:27.823Z,14.69
2022-12-31T16:07:56.377Z,14.66
2022-12-31T16:10:27.217Z,14.66
2022-12-31T16:12:55.136Z,14.70
2022-12-31T16:15:24.911Z,14.72
2022-12-31T16:18:05.873Z,14.78
2022-12-31T16:20:34.629Z,14.77
2022-12-31T16:23:04.359Z,14.71
2022-12-31T16:25:33.541Z,14.68
2022-12-31T16:28:02.694Z,14.75
2022-12-31T16:30:31.332Z,14.71
2022-12-31T16:33:03.830Z,14.72
2022-12-31T16:35:32.769Z,14.70
2022-12-31T16:38:13.462Z,14.72
2022-12-31T16:40:42.575Z,14.65
2022-12-31T16:43:28.906Z,14.75
2022-12-31T16:45:58.139Z,14.70
2022-12-31T16:48:25.101Z,14.71
2022-12-31T16:50:54.375Z,14.72
2022-12-31T16:53:26.080Z,14.77
2022-12-31T16:56:10.618Z,14.79
2022-12-31T16:58:41.928Z,14.81
2022-12-31T17:01:20.510Z,14.82
2022-12-31T17:03:55.326Z,14.91
2022-12-31T17:06:22.114Z,14.88
2022-12-31T17:09:14.586Z,14.74
2022-12-31T17:11:50.303Z,14.76
2022-12-31T17:14:28.650Z,14.63
2022-12-31T17:17:03.210Z,14.61
2022-12-31T17:19:43.256Z,14.60
2022-12-31T17:22:37.449Z,14.48
2022-12-31T17:25:27.623Z,14.52
2022-12-31T17:28:00.550Z,14.61
2022-12-31T17:30:29.983Z,14.59
2022-12-31T17:33:13.100Z,14.60
2022-12-31T17:35:42.253Z,14.65
2022-12-31T17:38:18.282Z,14.66
2022-12-31T17:40:51.748Z,14.62
2022-12-31T17:43:23.598Z,14.64
2022-12-31T17:45:54.541Z,14.59
2022-12-31T17:48:24.447Z,14.51
2022-12-31T17:50:53.273Z,14.50
2022-12-31T17:53:20.714Z,14.46
2022-12-31T17:55:52.239Z,14.48
2022-12-31T17:58:36.501Z,14.59
2022-12-31T18:01:07.298Z,14.69
2022-12-31T18:03:33.893Z,14.72
2022-12-31T18:06:00.379Z,14.66
2022-12-31T18:08:26.976Z,14.68
2022-12-31T18:10:54.583Z,14.68
2022-12-31T18:13:23.972Z,14.67
2022-12-31T18:15:50.985Z,14.72
2022-12-31T18:18:26.254Z,14.74
2022-12-31T18:20:58.657Z,14.75
2022-12-31T18:23:38.063Z,14.63
2022-12-31T18:26:04.732Z,14.62
2022-12-31T18:28:31.119Z,14.64
2022-12-31T18:30:57.631Z,14.62
2022-12-31T18:33:25.635Z,14.66
2022-12-31T18:36:09.951Z,14.66
2022-12-31T18:38:36.771Z,14.68
2022-12-31T18:41:03.833Z,14.74
2022-12-31T18:43:30.193Z,14.69
2022-12-31T18:45:56.647Z,14.76
2022-12-31T18:48:23.374Z,14.90
2022-12-31T18:50:50.466Z,14.92
2022-12-31T18:53:21.072Z,14.92
2022-12-31T18:55:53.793Z,14.96
2022-12-31T18:58:20.582Z,14.84
2022-12-31T19:00:48.535Z,14.89
2022-12-31T19:03:20.882Z,14.90
2022-12-31T19:05:51.340Z,14.94
2022-12-31T19:08:19.088Z,14.97
2022-12-31T19:10:46.350Z,14.94
2022-12-31T19:13:14.163Z,14.94
2022-12-31T19:15:52.658Z,14.88
2022-12-31T19:18:19.214Z,14.93
2022-12-31T19:20:46.187Z,14.94
2022-12-31T19:23:18.163Z,14.92
2022-12-31T19:25:45.834Z,14.85
2022-12-31T19:28:24.240Z,14.85
2022-12-31T19:30:51.340Z,14.80
2022-12-31T19:33:18.592Z,14.86
2022-12-31T19:35:46.260Z,14.75
2022-12-31T19:38:17.604Z,14.64
2022-12-31T19:40:43.972Z,14.64
2022-12-31T19:43:15.012Z,14.57
2022-12-31T19:45:43.367Z,14.61
2022-12-31T19:48:15.208Z,14.58
2022-12-31T19:50:43.742Z,14.55
2022-12-31T19:53:22.457Z,14.61
2022-12-31T19:55:49.680Z,14.66
2022-12-31T19:58:25.449Z,14.72
2022-12-31T20:01:02.048Z,14.72
2022-12-31T20:03:31.535Z,14.68
2022-12-31T20:06:03.237Z,14.73
2022-12-31T20:08:29.788Z,14.80
2022-12-31T20:10:58.798Z,14.83
2022-12-31T20:13:28.331Z,14.71
2022-12-31T20:15:54.733Z,14.74
2022-12-31T20:18:22.864Z,14.66
2022-12-31T20:20:55.302Z,14.66
2022-12-31T20:23:22.307Z,14.68
2022-12-31T20:25:58.871Z,14.65
2022-12-31T20:28:25.352Z,14.74
2022-12-31T20:30:51.959Z,14.74
2022-12-31T20:33:19.326Z,14.73
2022-12-31T20:35:46.124Z,14.82
2022-12-31T20:38:12.447Z,14.84
2022-12-31T20:40:44.551Z,14.81
2022-12-31T20:43:12.962Z,14.81
2022-12-31T20:45:40.940Z,14.82
2022-12-31T20:48:07.357Z,14.86
2022-12-31T20:50:33.732Z,14.87
2022-12-31T20:53:00.139Z,14.84
2022-12-31T20:55:27.299Z,14.79
2022-12-31T20:57:53.702Z,14.85
2022-12-31T21:00:20.129Z,14.89
2022-12-31T21:02:53.162Z,14.93
2022-12-31T21:05:24.487Z,14.99
2022-12-31T21:07:51.024Z,15.06
2022-12-31T21:10:17.845Z,15.01
2022-12-31T21:12:44.233Z,15.02
2022-12-31T21:15:12.423Z,15.06
2022-12-31T21:17:38.816Z,15.07
2022-12-31T21:20:05.731Z,15.06
2022-12-31T21:22:33.657Z,15.11
2022-12-31T21:25:01.488Z,15.06
2022-12-31T21:27:29.357Z,15.04
2022-12-31T21:32:42.972Z,14.94
2022-12-31T21:37:58.923Z,15.00
2022-12-31T21:40:27.781Z,14.96
2022-12-31T21:42:54.159Z,14.99
2022-12-31T21:45:20.489Z,15.00
2022-12-31T21:48:05.413Z,14.93
2022-12-31T21:50:32.528Z,14.91
2022-12-31T21:52:58.936Z,14.84
2022-12-31T21:55:44.110Z,14.90
2022-12-31T21:58:27.776Z,14.92
2022-12-31T22:01:25.173Z,14.96
2022-12-31T22:03:51.813Z,14.96
2022-12-31T22:06:20.751Z,14.96
2022-12-31T22:08:49.604Z,14.92
2022-12-31T22:11:17.418Z,15.03
2022-12-31T22:13:44.509Z,15.09
2022-12-31T22:16:13.021Z,14.96
2022-12-31T22:18:42.784Z,14.92
2022-12-31T22:21:19.235Z,14.99
2022-12-31T22:23:48.583Z,14.91
2022-12-31T22:26:17.695Z,14.85
2022-12-31T22:28:45.367Z,14.88
2022-12-31T22:31:16.824Z,14.99
2022-12-31T22:33:43.853Z,14.95
2022-12-31T22:36:12.886Z,14.94
2022-12-31T22:38:39.431Z,15.04
2022-12-31T22:41:12.111Z,15.04
2022-12-31T22:43:41.218Z,14.99
2022-12-31T22:46:13.693Z,14.90
2022-12-31T22:48:40.956Z,15.05
2022-12-31T22:51:08.648Z,15.02
2022-12-31T22:53:35.377Z,15.06
2022-12-31T22:56:01.897Z,15.02
2022-12-31T22:58:28.257Z,15.00
2022-12-31T23:00:54.636Z,15.02
2022-12-31T23:03:21.111Z,15.06
2022-12-31T23:05:51.803Z,15.12
2022-12-31T23:08:23.096Z,14.96
2022-12-31T23:11:05.255Z,14.95
2022-12-31T23:13:58.628Z,14.95
2022-12-31T23:16:45.792Z,15.00
2022-12-31T23:19:31.485Z,14.96
2022-12-31T23:22:16.983Z,14.96
2022-12-31T23:24:43.386Z,14.99
2022-12-31T23:27:10.868Z,15.00
2022-12-31T23:29:46.063Z,14.94
2022-12-31T23:32:13.732Z,14.94
2022-12-31T23:34:40.152Z,14.93
2022-12-31T23:37:06.560Z,15.12
2022-12-31T23:39:32.918Z,15.01
2022-12-31T23:42:00.208Z,14.94
2022-12-31T23:44:27.652Z,15.01
2022-12-31T23:46:54.564Z,15.07
2022-12-31T23:49:22.256Z,15.07
2022-12-31T23:51:48.757Z,15.05
2022-12-31T23:54:15.918Z,15.01
2022-12-31T23:56:42.449Z,15.04
2022-12-31T23:59:10.728Z,15.02
